Time;durP1;ratioP1;P1;durP2;ratioP2;P2;SDS_P1;SDS_P2;PMS_P1;PMS_P2;Temp;Humidity;BMP_temperature;BMP_pressure;BME280_temperature;BME280_humidity;BME280_pressure;Samples;Min_cycle;Max_cycle;Signal;HPM_P1;HPM_P2
2024/03/31 00:02:24;;;;;;;73.47;16.43;;;16.00;99.90;;;;;;5097912;27;20199;-75
2024/03/31 00:04:50;;;;;;;71.23;17.00;;;15.90;99.90;;;;;;5097550;28;20737;-75
2024/03/31 00:07:17;;;;;;;72.30;15.60;;;15.90;99.90;;;;;;5096884;28;20299;-75
2024/03/31 00:09:46;;;;;;;79.60;16.53;;;15.90;99.90;;;;;;5103427;28;20229;-75
2024/03/31 00:12:13;;;;;;;66.13;15.67;;;15.90;99.90;;;;;;5090293;28;20286;-74
2024/03/31 00:14:39;;;;;;;61.07;14.83;;;15.90;99.90;;;;;;5098884;28;20760;-74
2024/03/31 00:17:06;;;;;;;67.33;16.70;;;15.90;99.90;;;;;;5099584;28;20195;-74
2024/03/31 00:19:31;;;;;;;68.63;16.67;;;15.70;99.90;;;;;;5094444;28;20322;-75
2024/03/31 00:21:59;;;;;;;81.87;16.03;;;15.70;99.90;;;;;;5094488;28;20198;-74
2024/03/31 00:24:26;;;;;;;65.27;16.73;;;15.70;99.90;;;;;;5094313;28;20827;-75
2024/03/31 00:26:54;;;;;;;71.13;17.20;;;15.70;99.90;;;;;;5088382;28;20335;-74
2024/03/31 00:29:20;;;;;;;74.37;16.80;;;15.70;99.90;;;;;;5088070;28;20297;-74
2024/03/31 00:31:47;;;;;;;71.70;16.83;;;15.70;99.90;;;;;;5085655;28;20302;-74
2024/03/31 00:34:15;;;;;;;78.17;16.43;;;15.60;99.90;;;;;;5073647;28;20225;-74
2024/03/31 00:36:42;;;;;;;73.37;16.53;;;15.60;99.90;;;;;;5067615;28;20791;-75
2024/03/31 00:39:09;;;;;;;65.40;15.80;;;15.60;99.90;;;;;;5067643;28;20341;-75
2024/03/31 00:41:36;;;;;;;63.50;15.07;;;15.60;99.90;;;;;;5067515;28;20203;-75
2024/03/31 00:44:04;;;;;;;81.23;15.87;;;15.60;99.90;;;;;;5067452;28;20243;-75
2024/03/31 00:46:31;;;;;;;64.37;15.77;;;15.60;99.90;;;;;;5067359;28;20697;-75
2024/03/31 00:48:57;;;;;;;70.10;15.07;;;15.60;99.90;;;;;;5069310;28;20245;-75
2024/03/31 00:51:24;;;;;;;76.03;15.30;;;15.60;99.90;;;;;;5088439;28;20234;-74
2024/03/31 00:53:50;;;;;;;67.67;15.60;;;15.60;99.90;;;;;;5096467;28;20307;-75
2024/03/31 00:56:17;;;;;;;70.90;14.57;;;15.50;99.90;;;;;;5099013;28;20204;-77
2024/03/31 00:58:43;;;;;;;73.87;16.57;;;15.40;99.90;;;;;;5098667;28;20236;-77
2024/03/31 01:01:12;;;;;;;79.47;16.63;;;15.40;99.90;;;;;;5093828;28;20293;-76
2024/03/31 01:03:38;;;;;;;72.40;15.80;;;15.40;99.90;;;;;;5098970;28;20199;-77
2024/03/31 01:06:09;;;;;;;68.60;16.27;;;15.40;99.90;;;;;;5091293;28;20213;-77
2024/03/31 01:08:35;;;;;;;61.20;14.63;;;15.40;99.90;;;;;;5092788;28;20241;-74
2024/03/31 01:11:02;;;;;;;80.40;15.33;;;15.40;99.90;;;;;;5093341;28;20657;-74
2024/03/31 01:13:28;;;;;;;78.27;15.47;;;15.40;99.90;;;;;;5094757;28;20297;-76
2024/03/31 01:15:56;;;;;;;62.70;15.77;;;15.40;99.90;;;;;;5106136;28;20685;-76
2024/03/31 01:18:23;;;;;;;66.47;15.10;;;15.30;99.90;;;;;;5107722;28;20265;-77
2024/03/31 01:20:50;;;;;;;60.20;14.47;;;15.30;99.90;;;;;;5081019;28;20204;-76
2024/03/31 01:23:19;;;;;;;74.23;16.13;;;15.30;99.90;;;;;;5086545;28;20657;-76
2024/03/31 01:25:48;;;;;;;61.53;15.47;;;15.30;99.90;;;;;;5087283;28;20632;-76
2024/03/31 01:28:14;;;;;;;74.33;15.90;;;15.30;99.90;;;;;;5078403;28;20299;-76
2024/03/31 01:30:40;;;;;;;59.37;15.03;;;15.30;99.90;;;;;;5067338;28;20298;-76
2024/03/31 01:33:08;;;;;;;73.20;15.13;;;15.20;99.90;;;;;;5076457;28;20306;-76
2024/03/31 01:35:35;;;;;;;67.27;15.33;;;15.20;99.90;;;;;;5079200;28;20203;-76
2024/03/31 01:38:00;;;;;;;70.47;16.00;;;15.10;99.90;;;;;;5067382;28;20238;-76
2024/03/31 01:40:27;;;;;;;63.40;15.47;;;15.10;99.90;;;;;;5079705;28;20318;-75
2024/03/31 01:42:54;;;;;;;67.17;14.73;;;15.10;99.90;;;;;;5087460;28;20214;-75
2024/03/31 01:45:21;;;;;;;66.67;15.70;;;15.00;99.90;;;;;;5087282;28;20679;-76
2024/03/31 01:47:47;;;;;;;59.50;16.20;;;15.00;99.90;;;;;;5073302;28;20298;-75
2024/03/31 01:50:14;;;;;;;68.53;14.53;;;15.00;99.90;;;;;;5067368;28;20658;-76
2024/03/31 01:52:40;;;;;;;63.63;16.57;;;14.90;99.90;;;;;;5084745;28;20313;-75
2024/03/31 01:55:07;;;;;;;76.00;15.37;;;14.90;99.90;;;;;;5087150;28;20213;-76
2024/03/31 01:57:33;;;;;;;64.87;15.67;;;14.90;99.90;;;;;;5087371;28;20289;-76
2024/03/31 02:00:02;;;;;;;60.53;14.20;;;14.90;99.90;;;;;;5086725;28;20337;-75
2024/03/31 02:02:28;;;;;;;59.40;14.53;;;14.80;99.90;;;;;;5085306;28;20195;-75
2024/03/31 02:04:55;;;;;;;68.17;16.07;;;14.80;99.90;;;;;;5084357;28;20264;-76
2024/03/31 02:07:21;;;;;;;67.80;15.73;;;14.80;99.90;;;;;;5085844;28;20728;-76
2024/03/31 02:09:47;;;;;;;66.20;15.50;;;14.70;99.90;;;;;;5087218;28;20317;-76
2024/03/31 02:12:13;;;;;;;64.50;15.03;;;14.60;99.90;;;;;;5087173;28;20234;-75
2024/03/31 02:14:40;;;;;;;65.53;14.60;;;14.60;99.90;;;;;;5086713;28;20330;-76
2024/03/31 02:17:07;;;;;;;61.97;14.77;;;14.60;99.90;;;;;;5087115;28;20301;-76
2024/03/31 02:19:34;;;;;;;64.67;15.73;;;14.60;99.90;;;;;;5086942;28;20226;-75
2024/03/31 02:22:00;;;;;;;63.97;15.40;;;14.50;99.90;;;;;;5083247;28;20302;-75
2024/03/31 02:24:27;;;;;;;69.93;14.17;;;14.50;99.90;;;;;;5086775;28;20880;-76
2024/03/31 02:26:53;;;;;;;61.67;15.00;;;14.50;99.90;;;;;;5086768;28;20209;-76
2024/03/31 02:29:21;;;;;;;65.53;14.53;;;14.50;99.90;;;;;;5087073;28;20191;-76
2024/03/31 02:31:47;;;;;;;66.43;16.37;;;14.50;99.90;;;;;;5086832;28;21118;-76
2024/03/31 02:34:15;;;;;;;70.80;14.13;;;14.50;99.90;;;;;;5086997;28;20280;-76
2024/03/31 02:36:41;;;;;;;63.93;14.67;;;14.50;99.90;;;;;;5083250;28;20755;-76
2024/03/31 02:39:08;;;;;;;58.37;15.03;;;14.50;99.90;;;;;;5086683;28;20295;-76
2024/03/31 02:41:34;;;;;;;69.73;14.80;;;14.50;99.90;;;;;;5086736;28;20318;-76
2024/03/31 02:44:01;;;;;;;64.87;14.73;;;14.50;99.90;;;;;;5075981;28;20307;-76
2024/03/31 02:46:26;;;;;;;54.93;14.17;;;14.40;99.90;;;;;;5066755;28;20212;-76
2024/03/31 02:48:54;;;;;;;66.43;15.70;;;14.40;99.90;;;;;;5088757;28;20751;-75
2024/03/31 02:51:22;;;;;;;51.10;13.63;;;14.30;99.90;;;;;;5100999;28;20695;-75
2024/03/31 02:53:48;;;;;;;67.83;14.27;;;14.30;99.90;;;;;;5095508;28;20202;-75
2024/03/31 02:56:14;;;;;;;66.37;13.43;;;14.30;99.90;;;;;;5099193;28;20230;-76
2024/03/31 02:58:41;;;;;;;62.43;14.23;;;14.30;99.90;;;;;;5091908;28;22532;-75
2024/03/31 03:01:07;;;;;;;60.10;13.93;;;14.20;99.90;;;;;;5093579;28;20290;-75
2024/03/31 03:03:34;;;;;;;62.47;14.57;;;14.20;99.90;;;;;;5089516;28;20745;-75
2024/03/31 03:06:00;;;;;;;60.13;13.73;;;14.20;99.90;;;;;;5088764;28;20309;-75
2024/03/31 03:08:28;;;;;;;60.23;13.40;;;14.10;99.90;;;;;;5077242;28;20661;-75
2024/03/31 03:10:55;;;;;;;58.83;13.17;;;14.10;99.90;;;;;;5090050;28;20260;-77
2024/03/31 03:13:23;;;;;;;66.17;13.83;;;14.10;99.90;;;;;;5089733;28;20209;-77
2024/03/31 03:15:49;;;;;;;65.00;13.83;;;14.10;99.90;;;;;;5089509;28;20235;-77
2024/03/31 03:18:19;;;;;;;60.30;13.90;;;14.10;99.90;;;;;;5093764;28;20213;-77
2024/03/31 03:20:45;;;;;;;60.70;14.40;;;14.10;99.90;;;;;;5100287;28;20227;-77
2024/03/31 03:23:12;;;;;;;65.87;13.73;;;14.00;99.90;;;;;;5073505;28;20257;-77
2024/03/31 03:25:39;;;;;;;65.10;14.00;;;14.00;99.90;;;;;;5078950;28;20302;-77
2024/03/31 03:28:06;;;;;;;62.37;14.53;;;13.90;99.90;;;;;;5099215;28;20293;-77
2024/03/31 03:30:37;;;;;;;59.63;13.93;;;13.90;99.90;;;;;;5109678;28;20834;-77
2024/03/31 03:33:04;;;;;;;63.07;14.87;;;13.90;99.90;;;;;;5109579;28;20222;-75
2024/03/31 03:35:31;;;;;;;59.23;14.43;;;13.90;99.90;;;;;;5109599;28;20717;-74
2024/03/31 03:37:58;;;;;;;65.20;16.67;;;13.90;99.90;;;;;;5083684;28;20199;-74
2024/03/31 03:40:25;;;;;;;64.63;17.67;;;13.90;99.90;;;;;;5080683;28;20253;-74
2024/03/31 03:42:52;;;;;;;68.43;17.37;;;13.90;99.90;;;;;;5088955;28;20210;-75
2024/03/31 03:45:19;;;;;;;72.63;16.13;;;13.90;99.90;;;;;;5088874;28;20580;-74
2024/03/31 03:47:45;;;;;;;62.90;16.50;;;13.90;99.90;;;;;;5089038;28;20676;-74
2024/03/31 03:50:12;;;;;;;71.90;16.40;;;13.80;99.90;;;;;;5093245;28;20194;-77
2024/03/31 03:52:38;;;;;;;66.87;16.03;;;13.90;99.90;;;;;;5090953;28;20289;-76
2024/03/31 03:55:05;;;;;;;63.00;15.57;;;13.90;99.90;;;;;;5095338;28;20234;-76
2024/03/31 03:57:31;;;;;;;72.43;17.03;;;13.90;99.90;;;;;;5095864;28;20273;-76
2024/03/31 03:59:59;;;;;;;71.60;17.40;;;13.80;99.90;;;;;;5095138;28;20222;-76
2024/03/31 04:02:25;;;;;;;58.70;16.10;;;13.80;99.90;;;;;;5102659;28;20212;-77
2024/03/31 04:04:52;;;;;;;69.13;17.73;;;13.80;99.90;;;;;;5097544;28;20375;-76
2024/03/31 04:07:18;;;;;;;70.63;17.10;;;13.80;99.90;;;;;;5098881;28;20195;-77
2024/03/31 04:09:45;;;;;;;67.97;17.70;;;13.80;99.90;;;;;;5101734;28;20214;-77
2024/03/31 04:12:11;;;;;;;69.57;16.80;;;13.80;99.90;;;;;;5097263;28;20299;-77
2024/03/31 04:14:38;;;;;;;60.20;16.90;;;13.70;99.90;;;;;;5098424;28;20230;-76
2024/03/31 04:17:05;;;;;;;67.23;16.50;;;13.70;99.90;;;;;;5096657;28;20230;-76
2024/03/31 04:19:32;;;;;;;60.20;17.17;;;13.70;99.90;;;;;;5087696;28;20233;-74
2024/03/31 04:21:58;;;;;;;59.83;16.73;;;13.60;99.90;;;;;;5088315;28;20297;-74
2024/03/31 04:24:25;;;;;;;59.83;16.73;;;13.60;99.90;;;;;;5085867;28;20289;-74
2024/03/31 04:26:51;;;;;;;58.67;15.73;;;13.50;99.90;;;;;;5087846;28;20665;-74
2024/03/31 04:29:18;;;;;;;69.90;17.57;;;13.40;99.90;;;;;;5088058;28;20301;-74
2024/03/31 04:31:52;;;;;;;60.27;16.13;;;13.40;99.90;;;;;;5088015;28;20231;-75
2024/03/31 04:34:21;;;;;;;59.83;16.47;;;13.40;99.90;;;;;;5088022;28;20191;-76
2024/03/31 04:36:49;;;;;;;67.37;17.30;;;13.40;99.90;;;;;;5087933;28;20317;-76
2024/03/31 04:39:16;;;;;;;55.93;16.27;;;13.40;99.90;;;;;;5086368;28;20693;-76
2024/03/31 04:41:42;;;;;;;68.70;16.70;;;13.30;99.90;;;;;;5088292;28;20242;-76
2024/03/31 04:44:09;;;;;;;64.47;16.20;;;13.30;99.90;;;;;;5087971;28;20207;-76
2024/03/31 04:46:35;;;;;;;59.13;16.63;;;13.30;99.90;;;;;;5087638;28;20590;-74
2024/03/31 04:49:01;;;;;;;58.87;15.37;;;13.30;99.90;;;;;;5086970;28;20248;-75
2024/03/31 04:51:29;;;;;;;58.93;15.53;;;13.20;99.90;;;;;;5087127;28;20238;-75
2024/03/31 04:53:55;;;;;;;61.13;15.47;;;13.10;99.90;;;;;;5079574;28;20203;-75
2024/03/31 04:56:21;;;;;;;67.10;18.07;;;13.00;99.90;;;;;;5076978;28;20286;-76
2024/03/31 04:58:49;;;;;;;65.67;16.60;;;13.00;99.90;;;;;;5067027;28;20211;-74
2024/03/31 05:01:14;;;;;;;61.27;15.47;;;13.10;99.90;;;;;;5067176;28;20290;-75
2024/03/31 05:03:41;;;;;;;64.83;16.23;;;13.20;99.90;;;;;;5066938;28;20976;-75
2024/03/31 05:06:07;;;;;;;63.63;16.90;;;13.20;99.90;;;;;;5066628;28;20247;-75
2024/03/31 05:08:35;;;;;;;72.57;16.53;;;13.10;99.90;;;;;;5073699;28;20237;-75
2024/03/31 05:11:01;;;;;;;68.13;17.10;;;13.20;99.90;;;;;;5086213;28;20305;-75
2024/03/31 05:13:28;;;;;;;64.03;16.60;;;13.20;99.90;;;;;;5087843;28;20317;-75
2024/03/31 05:16:00;;;;;;;68.27;15.90;;;13.20;99.90;;;;;;5079905;28;20792;-76
2024/03/31 05:18:27;;;;;;;67.50;17.07;;;13.10;99.90;;;;;;5067662;28;20598;-76
2024/03/31 05:20:55;;;;;;;64.67;16.50;;;12.90;99.90;;;;;;5067156;28;20326;-76
2024/03/31 05:23:22;;;;;;;71.30;16.10;;;13.00;99.90;;;;;;5086448;28;20198;-76
2024/03/31 05:25:50;;;;;;;64.03;16.17;;;13.00;99.90;;;;;;5087408;28;20298;-76
2024/03/31 05:28:17;;;;;;;61.40;16.67;;;13.00;99.90;;;;;;5087224;28;20712;-76
2024/03/31 05:30:43;;;;;;;69.93;17.23;;;12.90;99.90;;;;;;5087188;28;20305;-76
2024/03/31 05:33:10;;;;;;;62.27;16.53;;;12.90;99.90;;;;;;5087165;28;20309;-76
2024/03/31 05:35:36;;;;;;;67.07;16.73;;;12.90;99.90;;;;;;5087451;28;20286;-75
2024/03/31 05:38:03;;;;;;;64.00;16.83;;;12.90;99.90;;;;;;5086977;28;20305;-76
2024/03/31 05:40:29;;;;;;;64.00;16.17;;;12.80;99.90;;;;;;5071163;28;20281;-76
2024/03/31 05:42:58;;;;;;;61.23;15.53;;;12.90;99.90;;;;;;5066647;28;20247;-76
2024/03/31 05:45:23;;;;;;;69.57;15.73;;;12.90;99.90;;;;;;5066856;28;20294;-76
2024/03/31 05:47:50;;;;;;;61.47;16.40;;;13.00;99.90;;;;;;5070613;28;20297;-76
2024/03/31 05:50:16;;;;;;;59.33;16.03;;;13.00;99.90;;;;;;5082717;28;20203;-76
2024/03/31 05:52:43;;;;;;;63.57;16.97;;;13.00;99.90;;;;;;5081670;28;20609;-75
2024/03/31 05:55:09;;;;;;;65.20;15.93;;;13.10;99.90;;;;;;5085023;28;20230;-75
2024/03/31 05:57:36;;;;;;;61.60;15.83;;;13.10;99.90;;;;;;5087193;28;20685;-76
2024/03/31 06:00:04;;;;;;;62.80;16.00;;;13.10;99.90;;;;;;5087337;28;20245;-76
2024/03/31 06:02:31;;;;;;;61.40;15.40;;;13.20;99.90;;;;;;5087495;28;20234;-73
2024/03/31 06:04:58;;;;;;;65.97;16.83;;;13.20;99.90;;;;;;5086965;28;20768;-74
2024/03/31 06:07:25;;;;;;;60.80;16.93;;;13.20;99.90;;;;;;5086438;28;20247;-75
2024/03/31 06:09:51;;;;;;;68.43;17.03;;;13.10;99.90;;;;;;5079231;28;20290;-75
2024/03/31 06:12:18;;;;;;;63.03;16.00;;;13.10;99.90;;;;;;5067111;28;20243;-75
2024/03/31 06:14:44;;;;;;;64.37;16.97;;;13.20;99.90;;;;;;5066360;28;20337;-75
2024/03/31 06:17:12;;;;;;;61.30;16.60;;;13.20;99.90;;;;;;5066908;28;20227;-76
2024/03/31 06:19:38;;;;;;;56.13;16.33;;;13.20;99.90;;;;;;5066862;28;20320;-75
2024/03/31 06:22:05;;;;;;;67.63;16.43;;;13.20;99.90;;;;;;5077582;28;20301;-75
2024/03/31 06:24:31;;;;;;;57.30;15.93;;;13.20;99.90;;;;;;5087248;28;20207;-75
2024/03/31 06:26:58;;;;;;;66.13;16.03;;;13.30;99.90;;;;;;5089287;28;20293;-75
2024/03/31 06:29:24;;;;;;;52.63;16.10;;;13.30;99.90;;;;;;5090417;28;20203;-75
2024/03/31 06:31:51;;;;;;;59.37;16.80;;;13.30;99.90;;;;;;5083059;28;20250;-78
2024/03/31 06:34:18;;;;;;;67.63;16.23;;;13.40;99.90;;;;;;5098732;28;20615;-75
2024/03/31 06:36:45;;;;;;;56.07;14.73;;;13.40;99.90;;;;;;5101624;28;20206;-76
2024/03/31 06:39:12;;;;;;;62.00;15.43;;;13.40;99.90;;;;;;5100931;28;20697;-77
2024/03/31 06:41:38;;;;;;;59.73;15.53;;;13.50;99.90;;;;;;5092650;28;20313;-77
2024/03/31 06:44:04;;;;;;;62.83;15.17;;;13.50;99.90;;;;;;5090387;28;20310;-76
2024/03/31 06:46:31;;;;;;;52.43;15.43;;;13.60;99.90;;;;;;5071328;28;20326;-76
2024/03/31 06:48:57;;;;;;;59.37;15.60;;;13.70;99.90;;;;;;5069899;28;20272;-76
2024/03/31 06:51:26;;;;;;;58.07;15.27;;;13.70;99.90;;;;;;5073837;28;20242;-76
2024/03/31 06:53:51;;;;;;;59.80;16.27;;;13.70;99.90;;;;;;5089901;28;20298;-73
2024/03/31 06:56:19;;;;;;;63.83;16.43;;;13.70;99.90;;;;;;5088455;28;20289;-75
2024/03/31 06:58:45;;;;;;;67.03;17.13;;;13.70;99.90;;;;;;5090221;28;20211;-75
2024/03/31 07:01:12;;;;;;;61.97;16.40;;;13.70;99.90;;;;;;5090231;28;20231;-75
2024/03/31 07:03:38;;;;;;;60.03;16.10;;;13.70;99.90;;;;;;5089991;28;20335;-73
2024/03/31 07:06:05;;;;;;;67.33;16.57;;;13.80;99.90;;;;;;5089663;28;20297;-73
2024/03/31 07:08:32;;;;;;;60.57;17.00;;;13.90;99.90;;;;;;5089879;28;20237;-74
2024/03/31 07:10:59;;;;;;;56.67;15.27;;;13.90;99.90;;;;;;5087458;28;20199;-74
2024/03/31 07:13:25;;;;;;;59.33;17.57;;;13.90;99.90;;;;;;5089481;28;20641;-73
2024/03/31 07:15:52;;;;;;;65.27;17.20;;;13.90;99.90;;;;;;5089424;28;20242;-74
2024/03/31 07:18:18;;;;;;;59.87;16.23;;;13.90;99.90;;;;;;5088211;28;20310;-73
2024/03/31 07:20:44;;;;;;;56.70;15.30;;;14.00;99.90;;;;;;5080279;28;20339;-73
2024/03/31 07:23:10;;;;;;;64.23;17.10;;;14.00;99.90;;;;;;5082866;28;20204;-73
2024/03/31 07:25:39;;;;;;;69.43;16.07;;;13.90;99.90;;;;;;5081213;28;20206;-73
2024/03/31 07:28:05;;;;;;;65.40;17.20;;;13.90;99.90;;;;;;5088344;28;20214;-73
2024/03/31 07:30:32;;;;;;;67.87;15.53;;;13.90;99.90;;;;;;5088676;28;20207;-73
2024/03/31 07:32:58;;;;;;;59.57;15.63;;;14.00;99.90;;;;;;5088282;28;20234;-73
2024/03/31 07:35:25;;;;;;;68.60;17.37;;;14.00;99.90;;;;;;5087170;28;20202;-73
2024/03/31 07:37:51;;;;;;;60.57;15.63;;;14.00;99.90;;;;;;5086516;28;20311;-73
2024/03/31 07:40:18;;;;;;;58.73;15.87;;;13.90;99.90;;;;;;5088749;28;20262;-73
2024/03/31 07:42:45;;;;;;;53.60;15.43;;;13.90;99.90;;;;;;5087307;28;20207;-73
2024/03/31 07:45:12;;;;;;;65.50;16.50;;;14.00;99.90;;;;;;5089179;28;20238;-73
2024/03/31 07:47:38;;;;;;;67.07;16.50;;;14.00;99.90;;;;;;5089488;28;20301;-73
2024/03/31 07:50:05;;;;;;;64.80;16.30;;;14.00;99.90;;;;;;5088735;28;20687;-73
2024/03/31 07:52:31;;;;;;;72.07;16.03;;;14.00;99.90;;;;;;5088510;28;20249;-72
2024/03/31 07:54:57;;;;;;;62.67;15.43;;;14.00;99.90;;;;;;5088647;28;20230;-72
2024/03/31 07:57:23;;;;;;;65.93;16.37;;;14.00;99.90;;;;;;5084629;28;20325;-73
2024/03/31 07:59:52;;;;;;;62.30;17.53;;;14.00;99.90;;;;;;5088563;28;20754;-73
2024/03/31 08:02:17;;;;;;;75.17;17.13;;;14.10;99.90;;;;;;5089038;28;20621;-72
2024/03/31 08:04:45;;;;;;;70.93;16.67;;;14.20;99.90;;;;;;5077683;28;20199;-73
2024/03/31 08:07:11;;;;;;;60.10;17.53;;;14.30;99.90;;;;;;5068218;28;20211;-74
2024/03/31 08:09:38;;;;;;;59.27;15.80;;;14.30;99.90;;;;;;5068701;28;20222;-74
2024/03/31 08:12:04;;;;;;;68.87;15.77;;;14.40;99.90;;;;;;5076702;28;20238;-74
2024/03/31 08:14:31;;;;;;;72.97;17.97;;;14.50;99.90;;;;;;5088264;28;20238;-74
2024/03/31 08:16:59;;;;;;;63.43;16.93;;;14.50;99.90;;;;;;5088669;28;20213;-74
2024/03/31 08:19:26;;;;;;;62.23;16.70;;;14.50;99.90;;;;;;5088766;28;20210;-75
2024/03/31 08:21:51;;;;;;;59.57;16.10;;;14.50;99.90;;;;;;5087427;28;20624;-73
2024/03/31 08:24:18;;;;;;;67.20;17.57;;;14.60;99.90;;;;;;5088544;28;20216;-74
2024/03/31 08:26:45;;;;;;;68.20;16.83;;;14.70;99.90;;;;;;5082694;28;20273;-73
2024/03/31 08:29:13;;;;;;;65.57;17.17;;;14.70;99.90;;;;;;5068029;28;21070;-73
2024/03/31 08:31:38;;;;;;;59.67;17.03;;;14.90;99.90;;;;;;5069236;28;20348;-73
2024/03/31 08:34:07;;;;;;;62.90;16.33;;;14.90;99.90;;;;;;5067652;28;20729;-73
2024/03/31 08:36:33;;;;;;;64.07;17.73;;;15.10;99.90;;;;;;5071299;28;20231;-73
2024/03/31 08:39:00;;;;;;;74.40;17.23;;;15.20;99.90;;;;;;5069350;28;20235;-74
2024/03/31 08:41:33;;;;;;;63.33;16.43;;;15.30;99.90;;;;;;5068618;28;20281;-73
2024/03/31 08:44:03;;;;;;;68.57;16.57;;;15.40;99.90;;;;;;5085455;28;20195;-73
2024/03/31 08:46:29;;;;;;;55.67;15.63;;;15.50;99.90;;;;;;5088298;28;20261;-74
2024/03/31 08:48:57;;;;;;;65.00;16.67;;;15.60;99.90;;;;;;5087874;28;20211;-74
2024/03/31 08:51:24;;;;;;;69.47;17.10;;;15.70;99.90;;;;;;5087739;28;20298;-73
2024/03/31 08:53:53;;;;;;;67.93;17.27;;;15.70;99.90;;;;;;5087692;28;20661;-74
2024/03/31 08:56:18;;;;;;;61.40;16.80;;;15.70;99.90;;;;;;5087690;28;20739;-73
2024/03/31 08:58:45;;;;;;;58.80;17.47;;;15.70;99.90;;;;;;5071358;28;20297;-73
2024/03/31 09:01:13;;;;;;;71.73;19.00;;;15.80;99.90;;;;;;5079268;28;20266;-74
2024/03/31 09:03:41;;;;;;;71.53;18.07;;;15.70;99.90;;;;;;5087828;28;20203;-73
2024/03/31 09:06:07;;;;;;;65.60;17.53;;;15.60;99.90;;;;;;5087942;28;20297;-73
2024/03/31 09:08:35;;;;;;;59.83;17.70;;;15.60;99.90;;;;;;5087847;28;20317;-74
2024/03/31 09:11:03;;;;;;;64.83;16.93;;;15.70;99.90;;;;;;5086890;28;20289;-74
2024/03/31 09:13:30;;;;;;;68.20;17.23;;;15.60;99.90;;;;;;5086845;28;20570;-74
2024/03/31 09:15:56;;;;;;;72.03;16.67;;;15.40;99.90;;;;;;5087544;28;20320;-74
2024/03/31 09:18:23;;;;;;;56.27;15.53;;;15.50;99.90;;;;;;5087414;28;20210;-74
2024/03/31 09:20:49;;;;;;;56.17;15.90;;;15.50;99.90;;;;;;5087557;28;20241;-74
2024/03/31 09:23:16;;;;;;;62.50;16.93;;;15.50;99.90;;;;;;5087180;28;20206;-72
2024/03/31 09:25:43;;;;;;;61.23;16.33;;;15.60;99.90;;;;;;5087169;28;20234;-72
2024/03/31 09:28:10;;;;;;;65.93;16.60;;;15.80;99.90;;;;;;5085055;28;20241;-73
2024/03/31 09:30:39;;;;;;;63.40;15.00;;;15.80;99.90;;;;;;5087079;28;20642;-73
2024/03/31 09:33:06;;;;;;;58.20;14.93;;;15.90;99.90;;;;;;5083955;28;20226;-73
2024/03/31 09:35:32;;;;;;;70.13;15.73;;;16.00;99.90;;;;;;5086646;28;20241;-73
2024/03/31 09:38:00;;;;;;;71.50;16.33;;;16.10;99.90;;;;;;5086762;28;20202;-74
2024/03/31 09:40:26;;;;;;;60.70;15.40;;;16.30;99.90;;;;;;5087386;28;20321;-73
2024/03/31 09:42:54;;;;;;;57.63;16.80;;;16.40;99.90;;;;;;5083048;28;20199;-73
2024/03/31 09:45:20;;;;;;;57.77;16.00;;;16.50;99.90;;;;;;5066949;28;20207;-73
2024/03/31 09:47:48;;;;;;;52.50;14.87;;;16.60;99.90;;;;;;5066714;28;20204;-73
2024/03/31 09:50:20;;;;;;;59.83;15.07;;;16.60;99.90;;;;;;5066986;28;20261;-73
2024/03/31 09:52:51;;;;;;;56.10;15.20;;;16.70;99.90;;;;;;5079776;28;20201;-73
2024/03/31 09:55:22;;;;;;;58.60;14.70;;;16.80;99.90;;;;;;5085655;28;20290;-73
2024/03/31 09:57:51;;;;;;;50.67;13.67;;;16.90;99.90;;;;;;5087703;28;20577;-74
2024/03/31 10:00:19;;;;;;;53.03;14.17;;;17.10;99.90;;;;;;5070835;28;20231;-73
2024/03/31 10:02:53;;;;;;;51.43;13.73;;;17.20;99.90;;;;;;5070893;28;20213;-73
2024/03/31 10:05:25;;;;;;;43.30;13.43;;;17.30;99.90;;;;;;5070963;28;20275;-73
2024/03/31 10:07:53;;;;;;;51.90;15.10;;;17.40;99.90;;;;;;5070642;28;20191;-73
2024/03/31 10:10:20;;;;;;;46.80;14.60;;;17.50;99.90;;;;;;5070668;28;20807;-73
2024/03/31 10:12:50;;;;;;;46.80;14.00;;;17.60;99.90;;;;;;5071236;28;20203;-73
2024/03/31 10:15:19;;;;;;;45.97;13.53;;;17.70;99.90;;;;;;5070635;28;20330;-73
2024/03/31 10:17:48;;;;;;;42.77;13.60;;;17.70;99.90;;;;;;5070032;28;20991;-73
2024/03/31 10:20:18;;;;;;;51.73;14.33;;;17.60;99.90;;;;;;5070262;28;20306;-73
2024/03/31 10:22:46;;;;;;;53.70;14.07;;;17.60;99.90;;;;;;5087025;28;20202;-73
2024/03/31 10:25:13;;;;;;;45.87;13.97;;;17.60;99.90;;;;;;5090425;28;20587;-73
2024/03/31 10:27:42;;;;;;;49.30;13.43;;;17.70;99.90;;;;;;5090680;28;20207;-73
2024/03/31 10:30:09;;;;;;;49.50;14.20;;;17.80;99.90;;;;;;5083253;28;20214;-73
2024/03/31 10:32:38;;;;;;;43.53;14.10;;;17.90;99.90;;;;;;5090539;28;20786;-73
2024/03/31 10:35:05;;;;;;;46.97;13.90;;;18.00;99.90;;;;;;5089971;28;20673;-73
2024/03/31 10:37:34;;;;;;;39.60;13.77;;;17.90;99.90;;;;;;5090391;28;20214;-74
2024/03/31 10:40:01;;;;;;;41.77;14.17;;;17.90;99.90;;;;;;5090287;28;20696;-74
2024/03/31 10:42:28;;;;;;;39.37;13.03;;;18.00;99.90;;;;;;5090133;28;20209;-72
2024/03/31 10:44:55;;;;;;;44.77;13.10;;;18.10;99.90;;;;;;5075159;28;20283;-72
2024/03/31 10:47:22;;;;;;;33.47;12.60;;;18.10;99.90;;;;;;5069906;28;20628;-73
2024/03/31 10:49:57;;;;;;;41.73;13.37;;;18.30;99.90;;;;;;5081129;28;20199;-72
2024/03/31 10:52:26;;;;;;;39.43;13.00;;;18.40;99.90;;;;;;5089651;28;20214;-73
2024/03/31 10:54:53;;;;;;;31.60;12.67;;;18.40;99.90;;;;;;5090062;28;20230;-73
2024/03/31 10:57:20;;;;;;;35.87;12.40;;;18.50;99.90;;;;;;5089815;28;20214;-73
2024/03/31 10:59:46;;;;;;;33.07;12.00;;;18.40;99.90;;;;;;5078787;28;20554;-73
2024/03/31 11:02:17;;;;;;;44.83;13.47;;;18.40;99.90;;;;;;5069610;28;20756;-73
2024/03/31 11:04:44;;;;;;;36.50;12.27;;;18.40;99.90;;;;;;5069563;28;20199;-73
2024/03/31 11:07:15;;;;;;;43.47;12.47;;;18.60;99.90;;;;;;5069183;28;20211;-72
2024/03/31 11:09:42;;;;;;;38.30;13.23;;;18.70;99.90;;;;;;5069040;28;20786;-73
2024/03/31 11:12:11;;;;;;;34.67;13.43;;;18.90;99.90;;;;;;5069282;28;20580;-73
2024/03/31 11:14:38;;;;;;;34.70;12.53;;;18.70;99.90;;;;;;5074672;28;20315;-73
2024/03/31 11:17:06;;;;;;;40.23;13.10;;;18.70;99.90;;;;;;5088894;28;20210;-73
2024/03/31 11:19:32;;;;;;;32.67;12.60;;;18.90;99.90;;;;;;5089481;28;20286;-73
2024/03/31 11:22:03;;;;;;;31.43;11.43;;;19.00;99.90;;;;;;5080194;28;20239;-73
2024/03/31 11:24:31;;;;;;;32.60;11.90;;;19.20;99.90;;;;;;5068604;28;20212;-73
2024/03/31 11:26:59;;;;;;;34.00;11.97;;;19.10;99.90;;;;;;5083305;28;20260;-73
2024/03/31 11:29:26;;;;;;;47.17;12.20;;;19.10;99.90;;;;;;5087212;28;20298;-73
2024/03/31 11:31:53;;;;;;;33.33;12.40;;;19.10;99.90;;;;;;5069030;28;20571;-73
2024/03/31 11:34:19;;;;;;;42.30;12.20;;;19.20;99.90;;;;;;5069021;28;20295;-73
2024/03/31 11:36:47;;;;;;;43.80;12.70;;;19.30;99.90;;;;;;5068876;28;20288;-73
2024/03/31 11:39:13;;;;;;;33.00;12.05;;;19.40;99.90;;;;;;5068951;28;20207;-73
2024/03/31 11:41:42;;;;;;;36.57;13.23;;;19.50;99.90;;;;;;5069128;28;20569;-73
2024/03/31 11:44:08;;;;;;;45.33;13.43;;;19.70;99.90;;;;;;5069382;28;20295;-73
2024/03/31 11:46:35;;;;;;;42.70;13.38;;;19.80;99.90;;;;;;5085781;28;20234;-73
2024/03/31 11:49:02;;;;;;;58.60;13.40;;;19.90;99.90;;;;;;5088803;28;20199;-73
2024/03/31 11:51:31;;;;;;;35.90;12.80;;;19.90;99.90;;;;;;5083974;28;20298;-73
2024/03/31 11:53:57;;;;;;;46.37;13.60;;;20.00;99.90;;;;;;5068491;28;20290;-73
2024/03/31 11:56:24;;;;;;;41.05;11.43;;;20.20;99.90;;;;;;5068500;28;20218;-73
2024/03/31 11:58:52;;;;;;;37.53;12.15;;;20.30;99.90;;;;;;5068744;28;20265;-73
2024/03/31 12:01:21;;;;;;;35.15;11.65;;;20.30;99.90;;;;;;5081154;28;20314;-73
2024/03/31 12:03:53;;;;;;;42.50;12.32;;;20.40;99.90;;;;;;5088778;28;20207;-73
2024/03/31 12:06:21;;;;;;;40.75;10.98;;;20.60;99.90;;;;;;5088482;28;20221;-73
2024/03/31 12:08:47;;;;;;;44.38;12.90;;;20.50;99.90;;;;;;5088921;28;20290;-73
2024/03/31 12:11:14;;;;;;;41.85;11.15;;;20.70;99.90;;;;;;5088226;28;20983;-73
2024/03/31 12:13:40;;;;;;;37.75;11.18;;;20.90;99.90;;;;;;5088267;28;20309;-74
2024/03/31 12:16:08;;;;;;;34.65;10.15;;;20.90;99.90;;;;;;5085877;28;20191;-74
2024/03/31 12:18:34;;;;;;;44.40;12.10;;;21.00;99.90;;;;;;5088559;28;20214;-74
2024/03/31 12:21:01;;;;;;;48.38;12.48;;;21.10;99.90;;;;;;5087153;28;20237;-73
2024/03/31 12:23:28;;;;;;;46.17;12.57;;;21.20;99.90;;;;;;5085119;28;20210;-73
2024/03/31 12:25:55;;;;;;;42.35;11.68;;;21.20;99.90;;;;;;5088296;28;20210;-74
2024/03/31 12:28:21;;;;;;;45.58;12.65;;;21.20;99.90;;;;;;5088178;28;20242;-74